sensor_id;sensor_type;location;lat;lon;timestamp;pressure;altitude;pressure_sealevel;temperature;humidity
68873;BME280;55907;50.806;12.882;2022-07-25T00:00:23;973.7;;;22.7;49.8
68873;BME280;55907;50.806;12.882;2022-07-25T00:03:24;973.7;;;22.7;49.7
68873;BME280;55907;50.806;12.882;2022-07-25T00:06:26;973.7;;;22.7;49.7
68873;BME280;55907;50.806;12.882;2022-07-25T00:09:27;973.6;;;22.7;49.8
68873;BME280;55907;50.806;12.882;2022-07-25T00:12:28;973.6;;;22.7;49.7
68873;BME280;55907;50.806;12.882;2022-07-25T00:15:30;973.6;;;22.7;49.8
68873;BME280;55907;50.806;12.882;2022-07-25T00:18:31;973.5;;;22.7;49.6
68873;BME280;55907;50.806;12.882;2022-07-25T00:21:33;973.5;;;22.7;49.7
68873;BME280;55907;50.806;12.882;2022-07-25T00:24:34;973.5;;;22.7;49.6
68873;BME280;55907;50.806;12.882;2022-07-25T00:27:35;973.5;;;22.7;49.7
68873;BME280;55907;50.806;12.882;2022-07-25T00:30:37;973.5;;;22.7;49.7
68873;BME280;55907;50.806;12.882;2022-07-25T00:33:38;973.5;;;22.7;49.7
68873;BME280;55907;50.806;12.882;2022-07-25T00:36:39;973.4;;;22.7;49.7
68873;BME280;55907;50.806;12.882;2022-07-25T00:39:41;973.4;;;22.7;49.7
68873;BME280;55907;50.806;12.882;2022-07-25T00:42:42;973.4;;;22.7;49.8
68873;BME280;55907;50.806;12.882;2022-07-25T00:45:43;973.4;;;22.7;49.7
68873;BME280;55907;50.806;12.882;2022-07-25T00:48:45;973.4;;;22.7;50.0
68873;BME280;55907;50.806;12.882;2022-07-25T00:51:46;973.4;;;22.7;50.2
68873;BME280;55907;50.806;12.882;2022-07-25T00:54:48;973.3;;;22.7;50.0
68873;BME280;55907;50.806;12.882;2022-07-25T00:57:49;973.3;;;22.8;49.8
68873;BME280;55907;50.806;12.882;2022-07-25T01:00:50;973.3;;;22.8;49.8
68873;BME280;55907;50.806;12.882;2022-07-25T01:03:52;973.3;;;22.8;49.8
68873;BME280;55907;50.806;12.882;2022-07-25T01:06:53;973.2;;;22.8;49.7
68873;BME280;55907;50.806;12.882;2022-07-25T01:09:55;973.2;;;22.8;49.6
68873;BME280;55907;50.806;12.882;2022-07-25T01:12:56;973.2;;;22.8;49.8
68873;BME280;55907;50.806;12.882;2022-07-25T01:15:57;973.2;;;22.8;49.9
68873;BME280;55907;50.806;12.882;2022-07-25T01:18:59;973.1;;;22.8;49.9
68873;BME280;55907;50.806;12.882;2022-07-25T01:22:00;973.1;;;22.8;50.0
68873;BME280;55907;50.806;12.882;2022-07-25T01:25:01;973.2;;;22.8;50.1
68873;BME280;55907;50.806;12.882;2022-07-25T01:28:03;973.1;;;22.7;49.8
68873;BME280;55907;50.806;12.882;2022-07-25T01:31:04;973.1;;;22.7;50.0
68873;BME280;55907;50.806;12.882;2022-07-25T01:34:05;973.1;;;22.7;50.0
68873;BME280;55907;50.806;12.882;2022-07-25T01:37:07;973.1;;;22.7;50.2
68873;BME280;55907;50.806;12.882;2022-07-25T01:40:09;973.1;;;22.7;50.3
68873;BME280;55907;50.806;12.882;2022-07-25T01:46:11;973.0;;;22.7;50.0
68873;BME280;55907;50.806;12.882;2022-07-25T01:49:12;973.0;;;22.7;50.1
68873;BME280;55907;50.806;12.882;2022-07-25T01:52:14;972.9;;;22.7;50.0
68873;BME280;55907;50.806;12.882;2022-07-25T01:58:16;972.9;;;22.8;50.1
68873;BME280;55907;50.806;12.882;2022-07-25T02:01:18;972.8;;;22.7;49.8
68873;BME280;55907;50.806;12.882;2022-07-25T02:04:19;972.8;;;22.7;50.0
68873;BME280;55907;50.806;12.882;2022-07-25T02:07:20;972.8;;;22.7;50.0
68873;BME280;55907;50.806;12.882;2022-07-25T02:10:22;972.8;;;22.7;50.6
68873;BME280;55907;50.806;12.882;2022-07-25T02:13:24;972.7;;;22.5;50.6
68873;BME280;55907;50.806;12.882;2022-07-25T02:16:25;972.8;;;22.4;50.9
68873;BME280;55907;50.806;12.882;2022-07-25T02:19:26;972.7;;;22.3;51.1
68873;BME280;55907;50.806;12.882;2022-07-25T02:22:27;972.8;;;22.2;51.4
68873;BME280;55907;50.806;12.882;2022-07-25T02:25:29;972.7;;;22.1;51.6
68873;BME280;55907;50.806;12.882;2022-07-25T02:28:30;972.7;;;21.9;51.7
68873;BME280;55907;50.806;12.882;2022-07-25T02:31:31;972.7;;;21.9;51.8
68873;BME280;55907;50.806;12.882;2022-07-25T02:34:33;972.7;;;21.8;52.2
68873;BME280;55907;50.806;12.882;2022-07-25T02:37:34;972.7;;;21.7;52.6
68873;BME280;55907;50.806;12.882;2022-07-25T02:40:36;972.6;;;21.6;52.7
68873;BME280;55907;50.806;12.882;2022-07-25T02:43:37;972.6;;;21.6;52.8
68873;BME280;55907;50.806;12.882;2022-07-25T02:46:39;972.6;;;21.6;52.8
68873;BME280;55907;50.806;12.882;2022-07-25T02:49:40;972.6;;;21.6;52.7
68873;BME280;55907;50.806;12.882;2022-07-25T02:52:41;972.6;;;21.6;52.7
68873;BME280;55907;50.806;12.882;2022-07-25T02:55:43;972.6;;;21.6;53.3
68873;BME280;55907;50.806;12.882;2022-07-25T02:58:44;972.6;;;21.5;53.4
68873;BME280;55907;50.806;12.882;2022-07-25T03:01:45;972.5;;;21.5;53.8
68873;BME280;55907;50.806;12.882;2022-07-25T03:04:47;972.5;;;21.5;54.3
68873;BME280;55907;50.806;12.882;2022-07-25T03:07:48;972.6;;;21.5;54.4
68873;BME280;55907;50.806;12.882;2022-07-25T03:10:49;972.5;;;21.4;54.0
68873;BME280;55907;50.806;12.882;2022-07-25T03:13:51;972.5;;;21.4;54.6
68873;BME280;55907;50.806;12.882;2022-07-25T03:16:52;972.5;;;21.4;54.3
68873;BME280;55907;50.806;12.882;2022-07-25T03:22:55;972.5;;;21.3;54.6
68873;BME280;55907;50.806;12.882;2022-07-25T03:25:57;972.4;;;21.3;54.4
68873;BME280;55907;50.806;12.882;2022-07-25T03:28:58;972.5;;;21.3;55.2
68873;BME280;55907;50.806;12.882;2022-07-25T03:31:59;972.4;;;21.2;55.8
68873;BME280;55907;50.806;12.882;2022-07-25T03:35:00;972.4;;;21.2;55.4
68873;BME280;55907;50.806;12.882;2022-07-25T03:38:02;972.3;;;21.1;55.7
68873;BME280;55907;50.806;12.882;2022-07-25T03:41:04;972.3;;;21.1;55.6
68873;BME280;55907;50.806;12.882;2022-07-25T03:44:05;972.3;;;21.1;55.2
68873;BME280;55907;50.806;12.882;2022-07-25T03:47:06;972.3;;;21.1;55.2
68873;BME280;55907;50.806;12.882;2022-07-25T03:50:08;972.3;;;21.1;55.4
68873;BME280;55907;50.806;12.882;2022-07-25T03:53:09;972.2;;;21.2;55.4
68873;BME280;55907;50.806;12.882;2022-07-25T03:56:10;972.3;;;21.2;55.5
68873;BME280;55907;50.806;12.882;2022-07-25T03:59:14;972.2;;;21.2;55.2
68873;BME280;55907;50.806;12.882;2022-07-25T04:02:13;972.2;;;21.3;55.1
68873;BME280;55907;50.806;12.882;2022-07-25T04:08:16;972.1;;;21.5;54.5
68873;BME280;55907;50.806;12.882;2022-07-25T04:11:17;972.1;;;21.5;54.5
68873;BME280;55907;50.806;12.882;2022-07-25T04:17:20;972.0;;;21.7;54.0
68873;BME280;55907;50.806;12.882;2022-07-25T04:20:21;972.0;;;21.8;54.0
68873;BME280;55907;50.806;12.882;2022-07-25T04:23:22;972.0;;;21.9;53.7
68873;BME280;55907;50.806;12.882;2022-07-25T04:26:24;972.0;;;22.0;54.2
68873;BME280;55907;50.806;12.882;2022-07-25T04:29:25;972.0;;;22.0;53.5
68873;BME280;55907;50.806;12.882;2022-07-25T04:32:26;972.0;;;22.1;53.8
68873;BME280;55907;50.806;12.882;2022-07-25T04:35:28;972.0;;;22.2;53.6
68873;BME280;55907;50.806;12.882;2022-07-25T04:38:29;972.1;;;22.2;53.7
68873;BME280;55907;50.806;12.882;2022-07-25T04:41:30;972.0;;;22.3;53.6
68873;BME280;55907;50.806;12.882;2022-07-25T04:44:32;972.0;;;22.5;53.1
68873;BME280;55907;50.806;12.882;2022-07-25T04:47:33;971.9;;;22.8;53.4
68873;BME280;55907;50.806;12.882;2022-07-25T04:50:35;972.0;;;23.8;51.6
68873;BME280;55907;50.806;12.882;2022-07-25T04:56:37;971.9;;;26.6;45.4
68873;BME280;55907;50.806;12.882;2022-07-25T04:59:39;971.9;;;27.6;43.0
68873;BME280;55907;50.806;12.882;2022-07-25T05:02:40;971.9;;;28.9;40.7
68873;BME280;55907;50.806;12.882;2022-07-25T05:05:41;971.8;;;30.1;38.5
68873;BME280;55907;50.806;12.882;2022-07-25T05:08:43;971.8;;;31.0;36.7
68873;BME280;55907;50.806;12.882;2022-07-25T05:11:44;971.8;;;31.5;34.3
68873;BME280;55907;50.806;12.882;2022-07-25T05:14:45;971.7;;;31.7;32.4
68873;BME280;55907;50.806;12.882;2022-07-25T05:20:48;971.7;;;31.1;32.9
68873;BME280;55907;50.806;12.882;2022-07-25T05:23:49;971.7;;;31.4;32.2
68873;BME280;55907;50.806;12.882;2022-07-25T05:26:50;971.7;;;31.3;31.9
68873;BME280;55907;50.806;12.882;2022-07-25T05:29:52;971.7;;;30.8;32.8
68873;BME280;55907;50.806;12.882;2022-07-25T05:32:53;971.6;;;29.7;34.3
68873;BME280;55907;50.806;12.882;2022-07-25T05:35:54;971.6;;;29.0;36.1
68873;BME280;55907;50.806;12.882;2022-07-25T05:38:56;971.6;;;28.5;36.9
68873;BME280;55907;50.806;12.882;2022-07-25T05:41:57;971.6;;;28.2;37.9
68873;BME280;55907;50.806;12.882;2022-07-25T05:44:59;971.5;;;28.0;38.5
68873;BME280;55907;50.806;12.882;2022-07-25T05:48:00;971.6;;;28.0;38.5
68873;BME280;55907;50.806;12.882;2022-07-25T05:51:01;971.5;;;28.1;38.8
68873;BME280;55907;50.806;12.882;2022-07-25T05:54:02;971.5;;;28.0;38.9
68873;BME280;55907;50.806;12.882;2022-07-25T05:57:04;971.5;;;28.0;39.3
68873;BME280;55907;50.806;12.882;2022-07-25T06:00:06;971.5;;;27.9;39.5
68873;BME280;55907;50.806;12.882;2022-07-25T06:03:06;971.4;;;27.8;40.3
68873;BME280;55907;50.806;12.882;2022-07-25T06:06:08;971.4;;;27.7;39.6
68873;BME280;55907;50.806;12.882;2022-07-25T06:09:09;971.4;;;27.6;39.7
68873;BME280;55907;50.806;12.882;2022-07-25T06:12:10;971.4;;;27.6;40.2
68873;BME280;55907;50.806;12.882;2022-07-25T06:15:11;971.3;;;27.6;40.9
68873;BME280;55907;50.806;12.882;2022-07-25T06:18:13;971.3;;;27.6;39.8
68873;BME280;55907;50.806;12.882;2022-07-25T06:21:14;971.3;;;27.6;40.9
68873;BME280;55907;50.806;12.882;2022-07-25T06:24:15;971.2;;;27.7;40.0
68873;BME280;55907;50.806;12.882;2022-07-25T06:27:17;971.2;;;27.7;40.2
68873;BME280;55907;50.806;12.882;2022-07-25T06:30:18;971.2;;;27.6;40.1
68873;BME280;55907;50.806;12.882;2022-07-25T06:33:19;971.2;;;27.5;40.2
68873;BME280;55907;50.806;12.882;2022-07-25T06:36:21;971.2;;;27.6;40.3
68873;BME280;55907;50.806;12.882;2022-07-25T06:39:22;971.2;;;27.6;40.1
68873;BME280;55907;50.806;12.882;2022-07-25T06:42:23;971.2;;;27.6;40.2
68873;BME280;55907;50.806;12.882;2022-07-25T06:45:25;971.2;;;27.6;39.6
68873;BME280;55907;50.806;12.882;2022-07-25T06:51:27;971.2;;;27.7;39.8
68873;BME280;55907;50.806;12.882;2022-07-25T06:54:29;971.2;;;27.9;39.6
68873;BME280;55907;50.806;12.882;2022-07-25T06:57:30;971.1;;;28.0;39.3
68873;BME280;55907;50.806;12.882;2022-07-25T07:00:31;971.1;;;28.2;38.7
68873;BME280;55907;50.806;12.882;2022-07-25T07:03:33;971.0;;;28.6;38.4
68873;BME280;55907;50.806;12.882;2022-07-25T07:06:34;971.0;;;29.0;37.7
68873;BME280;55907;50.806;12.882;2022-07-25T07:09:35;971.0;;;29.5;37.3
68873;BME280;55907;50.806;12.882;2022-07-25T07:12:37;971.0;;;29.7;36.8
68873;BME280;55907;50.806;12.882;2022-07-25T07:15:38;971.0;;;30.1;36.2
68873;BME280;55907;50.806;12.882;2022-07-25T07:18:39;971.0;;;30.3;36.0
68873;BME280;55907;50.806;12.882;2022-07-25T07:21:41;971.0;;;30.2;34.8
68873;BME280;55907;50.806;12.882;2022-07-25T07:24:42;971.0;;;30.0;33.1
68873;BME280;55907;50.806;12.882;2022-07-25T07:27:44;971.0;;;29.8;33.3
68873;BME280;55907;50.806;12.882;2022-07-25T07:30:44;971.0;;;29.9;33.3
68873;BME280;55907;50.806;12.882;2022-07-25T07:33:46;970.9;;;29.9;32.6
68873;BME280;55907;50.806;12.882;2022-07-25T07:36:47;971.0;;;29.8;32.6
68873;BME280;55907;50.806;12.882;2022-07-25T07:39:48;970.9;;;30.0;33.0
68873;BME280;55907;50.806;12.882;2022-07-25T07:42:50;970.9;;;30.0;32.3
68873;BME280;55907;50.806;12.882;2022-07-25T07:45:51;970.9;;;30.1;32.1
68873;BME280;55907;50.806;12.882;2022-07-25T07:48:52;970.9;;;30.2;32.0
68873;BME280;55907;50.806;12.882;2022-07-25T07:51:54;970.9;;;30.3;31.5
68873;BME280;55907;50.806;12.882;2022-07-25T07:54:55;970.8;;;30.5;31.6
68873;BME280;55907;50.806;12.882;2022-07-25T07:57:56;970.8;;;30.6;31.6
68873;BME280;55907;50.806;12.882;2022-07-25T08:00:58;970.8;;;30.5;31.5
68873;BME280;55907;50.806;12.882;2022-07-25T08:03:59;970.8;;;30.5;31.6
68873;BME280;55907;50.806;12.882;2022-07-25T08:07:00;970.8;;;30.5;31.5
68873;BME280;55907;50.806;12.882;2022-07-25T08:10:02;970.7;;;30.4;31.0
68873;BME280;55907;50.806;12.882;2022-07-25T08:13:11;970.8;;;30.4;31.3
68873;BME280;55907;50.806;12.882;2022-07-25T08:16:04;970.7;;;30.5;31.6
68873;BME280;55907;50.806;12.882;2022-07-25T08:19:06;970.7;;;30.7;31.2
68873;BME280;55907;50.806;12.882;2022-07-25T08:22:07;970.6;;;30.8;31.0
68873;BME280;55907;50.806;12.882;2022-07-25T08:25:11;970.7;;;30.9;30.6
68873;BME280;55907;50.806;12.882;2022-07-25T08:28:10;970.6;;;30.9;30.5
68873;BME280;55907;50.806;12.882;2022-07-25T08:31:11;970.7;;;31.1;30.3
68873;BME280;55907;50.806;12.882;2022-07-25T08:34:12;970.6;;;31.1;29.2
68873;BME280;55907;50.806;12.882;2022-07-25T08:37:13;970.7;;;31.2;29.6
68873;BME280;55907;50.806;12.882;2022-07-25T08:40:16;970.6;;;31.7;29.5
68873;BME280;55907;50.806;12.882;2022-07-25T08:43:16;970.6;;;32.0;28.7
68873;BME280;55907;50.806;12.882;2022-07-25T08:46:18;970.6;;;32.3;28.4
68873;BME280;55907;50.806;12.882;2022-07-25T08:49:19;970.7;;;32.5;28.7
68873;BME280;55907;50.806;12.882;2022-07-25T08:52:21;970.5;;;33.2;27.6
68873;BME280;55907;50.806;12.882;2022-07-25T08:55:22;970.5;;;34.4;25.7
68873;BME280;55907;50.806;12.882;2022-07-25T09:01:24;970.4;;;36.6;23.1
68873;BME280;55907;50.806;12.882;2022-07-25T09:04:25;970.5;;;37.5;21.9
68873;BME280;55907;50.806;12.882;2022-07-25T09:07:28;970.4;;;38.2;20.4
68873;BME280;55907;50.806;12.882;2022-07-25T09:10:28;970.5;;;39.1;19.9
68873;BME280;55907;50.806;12.882;2022-07-25T09:13:29;970.5;;;39.1;19.1
68873;BME280;55907;50.806;12.882;2022-07-25T09:16:32;970.5;;;39.0;19.5
68873;BME280;55907;50.806;12.882;2022-07-25T09:19:32;970.4;;;38.8;19.0
68873;BME280;55907;50.806;12.882;2022-07-25T09:22:42;970.4;;;38.7;19.0
68873;BME280;55907;50.806;12.882;2022-07-25T09:25:35;970.4;;;38.6;19.4
68873;BME280;55907;50.806;12.882;2022-07-25T09:31:37;970.3;;;37.7;19.7
68873;BME280;55907;50.806;12.882;2022-07-25T09:34:40;970.3;;;37.6;19.7
68873;BME280;55907;50.806;12.882;2022-07-25T09:37:39;970.2;;;37.7;19.9
68873;BME280;55907;50.806;12.882;2022-07-25T09:40:52;970.1;;;37.7;20.1
68873;BME280;55907;50.806;12.882;2022-07-25T09:43:43;970.1;;;37.5;19.9
68873;BME280;55907;50.806;12.882;2022-07-25T09:46:44;970.1;;;37.0;20.5
68873;BME280;55907;50.806;12.882;2022-07-25T09:49:45;970.1;;;37.0;20.8
68873;BME280;55907;50.806;12.882;2022-07-25T09:52:46;970.1;;;36.9;20.6
68873;BME280;55907;50.806;12.882;2022-07-25T09:55:47;970.1;;;36.3;20.6
68873;BME280;55907;50.806;12.882;2022-07-25T09:58:49;970.0;;;36.3;20.9
68873;BME280;55907;50.806;12.882;2022-07-25T10:02:02;970.0;;;36.0;21.0
68873;BME280;55907;50.806;12.882;2022-07-25T10:05:01;970.0;;;36.1;20.7
68873;BME280;55907;50.806;12.882;2022-07-25T10:07:53;969.9;;;36.5;21.0
68873;BME280;55907;50.806;12.882;2022-07-25T10:10:54;969.9;;;36.7;20.6
68873;BME280;55907;50.806;12.882;2022-07-25T10:13:55;969.9;;;36.8;20.3
68873;BME280;55907;50.806;12.882;2022-07-25T10:16:57;969.8;;;36.3;20.3
68873;BME280;55907;50.806;12.882;2022-07-25T10:26:02;969.8;;;36.1;20.9
68873;BME280;55907;50.806;12.882;2022-07-25T10:29:06;969.6;;;36.2;20.9
68873;BME280;55907;50.806;12.882;2022-07-25T10:32:05;969.6;;;36.5;20.8
68873;BME280;55907;50.806;12.882;2022-07-25T10:35:11;969.6;;;36.5;20.2
68873;BME280;55907;50.806;12.882;2022-07-25T10:38:06;969.6;;;36.5;20.2
68873;BME280;55907;50.806;12.882;2022-07-25T10:41:10;969.6;;;36.3;20.4
68873;BME280;55907;50.806;12.882;2022-07-25T10:44:11;969.5;;;36.2;21.1
68873;BME280;55907;50.806;12.882;2022-07-25T10:47:11;969.5;;;36.2;21.2
68873;BME280;55907;50.806;12.882;2022-07-25T10:50:11;969.4;;;36.3;21.5
68873;BME280;55907;50.806;12.882;2022-07-25T10:53:12;969.3;;;36.4;21.0
68873;BME280;55907;50.806;12.882;2022-07-25T10:56:15;969.3;;;36.4;21.2
68873;BME280;55907;50.806;12.882;2022-07-25T10:59:27;969.2;;;36.5;21.3
68873;BME280;55907;50.806;12.882;2022-07-25T11:02:17;969.1;;;36.6;21.7
68873;BME280;55907;50.806;12.882;2022-07-25T11:05:18;969.1;;;36.5;21.4
68873;BME280;55907;50.806;12.882;2022-07-25T11:08:29;969.1;;;36.1;21.8
68873;BME280;55907;50.806;12.882;2022-07-25T11:11:32;969.0;;;36.0;21.9
68873;BME280;55907;50.806;12.882;2022-07-25T11:14:23;969.0;;;36.0;22.4
68873;BME280;55907;50.806;12.882;2022-07-25T11:17:23;968.9;;;36.2;22.2
68873;BME280;55907;50.806;12.882;2022-07-25T11:20:24;968.9;;;36.3;22.8
68873;BME280;55907;50.806;12.882;2022-07-25T11:23:26;969.0;;;36.4;22.8
68873;BME280;55907;50.806;12.882;2022-07-25T11:26:27;968.9;;;36.5;22.7
68873;BME280;55907;50.806;12.882;2022-07-25T11:29:28;968.9;;;36.3;22.5
68873;BME280;55907;50.806;12.882;2022-07-25T11:32:37;968.8;;;36.1;22.5
68873;BME280;55907;50.806;12.882;2022-07-25T11:35:32;968.7;;;35.9;23.0
68873;BME280;55907;50.806;12.882;2022-07-25T11:38:33;968.6;;;36.1;22.5
68873;BME280;55907;50.806;12.882;2022-07-25T11:41:33;968.6;;;35.9;22.4
68873;BME280;55907;50.806;12.882;2022-07-25T11:44:37;968.6;;;35.6;22.8
68873;BME280;55907;50.806;12.882;2022-07-25T11:47:36;968.5;;;35.6;22.7
68873;BME280;55907;50.806;12.882;2022-07-25T11:50:39;968.5;;;35.5;22.8
68873;BME280;55907;50.806;12.882;2022-07-25T11:53:41;968.4;;;35.8;23.3
68873;BME280;55907;50.806;12.882;2022-07-25T11:56:40;968.4;;;35.8;22.6
68873;BME280;55907;50.806;12.882;2022-07-25T11:59:41;968.4;;;35.4;22.6
68873;BME280;55907;50.806;12.882;2022-07-25T12:02:43;968.3;;;35.5;22.8
68873;BME280;55907;50.806;12.882;2022-07-25T12:05:44;968.3;;;35.6;21.9
68873;BME280;55907;50.806;12.882;2022-07-25T12:08:45;968.3;;;35.8;21.4
68873;BME280;55907;50.806;12.882;2022-07-25T12:11:47;968.3;;;35.6;20.4
68873;BME280;55907;50.806;12.882;2022-07-25T12:14:48;968.2;;;35.8;21.3
68873;BME280;55907;50.806;12.882;2022-07-25T12:17:50;968.2;;;35.8;20.5
68873;BME280;55907;50.806;12.882;2022-07-25T12:20:51;968.2;;;35.9;20.2
68873;BME280;55907;50.806;12.882;2022-07-25T12:23:52;968.1;;;36.0;20.9
68873;BME280;55907;50.806;12.882;2022-07-25T12:26:53;968.1;;;36.0;21.3
68873;BME280;55907;50.806;12.882;2022-07-25T12:32:56;968.0;;;35.7;21.2
68873;BME280;55907;50.806;12.882;2022-07-25T12:35:57;968.0;;;36.0;21.2
68873;BME280;55907;50.806;12.882;2022-07-25T12:38:58;968.0;;;36.1;20.5
68873;BME280;55907;50.806;12.882;2022-07-25T12:41:59;967.8;;;35.9;20.2
68873;BME280;55907;50.806;12.882;2022-07-25T12:45:01;967.8;;;35.9;20.8
68873;BME280;55907;50.806;12.882;2022-07-25T12:48:02;967.8;;;35.7;21.1
68873;BME280;55907;50.806;12.882;2022-07-25T12:54:05;967.7;;;35.5;20.9
68873;BME280;55907;50.806;12.882;2022-07-25T12:57:06;967.7;;;35.4;20.9
68873;BME280;55907;50.806;12.882;2022-07-25T13:00:11;967.7;;;35.6;21.1
68873;BME280;55907;50.806;12.882;2022-07-25T13:03:09;967.5;;;35.7;21.4
68873;BME280;55907;50.806;12.882;2022-07-25T13:06:10;967.5;;;35.9;21.6
68873;BME280;55907;50.806;12.882;2022-07-25T13:09:11;967.5;;;35.9;20.4
68873;BME280;55907;50.806;12.882;2022-07-25T13:12:13;967.5;;;35.8;19.6
68873;BME280;55907;50.806;12.882;2022-07-25T13:15:14;967.4;;;36.2;19.8
68873;BME280;55907;50.806;12.882;2022-07-25T13:18:15;967.4;;;36.3;19.4
68873;BME280;55907;50.806;12.882;2022-07-25T13:21:17;967.3;;;36.3;19.5
68873;BME280;55907;50.806;12.882;2022-07-25T13:27:20;967.3;;;35.9;20.4
68873;BME280;55907;50.806;12.882;2022-07-25T13:30:20;967.2;;;35.9;19.8
68873;BME280;55907;50.806;12.882;2022-07-25T13:33:22;967.1;;;36.0;20.3
68873;BME280;55907;50.806;12.882;2022-07-25T13:39:24;967.1;;;36.1;20.4
68873;BME280;55907;50.806;12.882;2022-07-25T13:42:26;967.1;;;36.1;20.1
68873;BME280;55907;50.806;12.882;2022-07-25T13:45:27;967.0;;;35.8;20.5
68873;BME280;55907;50.806;12.882;2022-07-25T13:48:29;967.0;;;36.0;20.4
68873;BME280;55907;50.806;12.882;2022-07-25T13:51:30;967.0;;;36.1;21.1
68873;BME280;55907;50.806;12.882;2022-07-25T13:54:31;966.9;;;36.2;20.9
68873;BME280;55907;50.806;12.882;2022-07-25T13:57:32;966.8;;;36.1;20.7
68873;BME280;55907;50.806;12.882;2022-07-25T14:00:34;966.8;;;36.1;21.1
68873;BME280;55907;50.806;12.882;2022-07-25T14:03:35;966.8;;;36.2;20.9
68873;BME280;55907;50.806;12.882;2022-07-25T14:06:36;966.8;;;36.2;20.9
68873;BME280;55907;50.806;12.882;2022-07-25T14:09:38;966.7;;;36.2;20.2
68873;BME280;55907;50.806;12.882;2022-07-25T14:12:39;966.7;;;36.2;20.5
68873;BME280;55907;50.806;12.882;2022-07-25T14:15:40;966.7;;;36.0;20.1
68873;BME280;55907;50.806;12.882;2022-07-25T14:18:42;966.6;;;35.9;20.5
68873;BME280;55907;50.806;12.882;2022-07-25T14:21:43;966.6;;;35.9;20.4
68873;BME280;55907;50.806;12.882;2022-07-25T14:24:45;966.5;;;35.8;20.6
68873;BME280;55907;50.806;12.882;2022-07-25T14:27:45;966.5;;;35.9;20.9
68873;BME280;55907;50.806;12.882;2022-07-25T14:30:47;966.5;;;36.0;20.7
68873;BME280;55907;50.806;12.882;2022-07-25T14:33:48;966.5;;;36.0;20.7
68873;BME280;55907;50.806;12.882;2022-07-25T14:36:49;966.4;;;35.8;20.3
68873;BME280;55907;50.806;12.882;2022-07-25T14:39:51;966.4;;;35.3;20.6
68873;BME280;55907;50.806;12.882;2022-07-25T14:42:52;966.4;;;35.1;20.8
68873;BME280;55907;50.806;12.882;2022-07-25T14:45:53;966.4;;;35.2;20.7
68873;BME280;55907;50.806;12.882;2022-07-25T14:48:55;966.3;;;35.4;21.3
68873;BME280;55907;50.806;12.882;2022-07-25T14:51:56;966.3;;;35.4;20.7
68873;BME280;55907;50.806;12.882;2022-07-25T14:54:57;966.3;;;35.3;20.7
68873;BME280;55907;50.806;12.882;2022-07-25T14:57:59;966.3;;;35.5;21.2
68873;BME280;55907;50.806;12.882;2022-07-25T15:04:03;966.2;;;35.5;21.1
68873;BME280;55907;50.806;12.882;2022-07-25T15:07:03;966.1;;;35.2;20.6
68873;BME280;55907;50.806;12.882;2022-07-25T15:10:04;966.2;;;35.0;20.8
68873;BME280;55907;50.806;12.882;2022-07-25T15:13:05;966.1;;;34.9;20.8
68873;BME280;55907;50.806;12.882;2022-07-25T15:16:06;966.0;;;35.0;21.0
68873;BME280;55907;50.806;12.882;2022-07-25T15:19:08;966.1;;;35.0;21.6
68873;BME280;55907;50.806;12.882;2022-07-25T15:22:09;966.0;;;35.0;21.4
68873;BME280;55907;50.806;12.882;2022-07-25T15:25:10;966.0;;;34.9;21.6
68873;BME280;55907;50.806;12.882;2022-07-25T15:28:12;966.0;;;34.8;21.3
68873;BME280;55907;50.806;12.882;2022-07-25T15:31:13;966.0;;;35.0;21.6
68873;BME280;55907;50.806;12.882;2022-07-25T15:34:15;966.0;;;35.5;21.0
68873;BME280;55907;50.806;12.882;2022-07-25T15:37:16;966.0;;;35.7;21.1
68873;BME280;55907;50.806;12.882;2022-07-25T15:40:17;966.0;;;35.9;20.8
68873;BME280;55907;50.806;12.882;2022-07-25T15:43:18;966.0;;;35.9;21.1
68873;BME280;55907;50.806;12.882;2022-07-25T15:46:20;966.0;;;35.7;19.8
68873;BME280;55907;50.806;12.882;2022-07-25T15:49:21;965.9;;;35.6;20.5
68873;BME280;55907;50.806;12.882;2022-07-25T15:52:22;965.9;;;35.4;20.6
68873;BME280;55907;50.806;12.882;2022-07-25T15:58:25;965.7;;;35.2;21.0
68873;BME280;55907;50.806;12.882;2022-07-25T16:01:26;965.6;;;35.0;21.6
68873;BME280;55907;50.806;12.882;2022-07-25T16:04:27;965.5;;;34.8;21.4
68873;BME280;55907;50.806;12.882;2022-07-25T16:07:29;965.5;;;34.5;21.9
68873;BME280;55907;50.806;12.882;2022-07-25T16:10:31;965.5;;;34.6;22.0
68873;BME280;55907;50.806;12.882;2022-07-25T16:13:31;965.5;;;34.7;22.1
68873;BME280;55907;50.806;12.882;2022-07-25T16:16:34;965.5;;;34.7;22.3
68873;BME280;55907;50.806;12.882;2022-07-25T16:19:34;965.4;;;34.8;22.2
68873;BME280;55907;50.806;12.882;2022-07-25T16:22:35;965.4;;;34.9;22.4
68873;BME280;55907;50.806;12.882;2022-07-25T16:25:36;965.4;;;34.8;22.4
68873;BME280;55907;50.806;12.882;2022-07-25T16:28:38;965.4;;;34.8;22.5
68873;BME280;55907;50.806;12.882;2022-07-25T16:31:39;965.4;;;34.7;22.4
68873;BME280;55907;50.806;12.882;2022-07-25T16:34:40;965.4;;;34.7;22.4
68873;BME280;55907;50.806;12.882;2022-07-25T16:37:42;965.4;;;34.7;22.3
68873;BME280;55907;50.806;12.882;2022-07-25T16:40:43;965.4;;;34.6;22.3
68873;BME280;55907;50.806;12.882;2022-07-25T16:43:45;965.3;;;34.5;23.0
68873;BME280;55907;50.806;12.882;2022-07-25T16:46:46;965.2;;;34.4;22.6
68873;BME280;55907;50.806;12.882;2022-07-25T16:49:47;965.1;;;34.3;23.3
68873;BME280;55907;50.806;12.882;2022-07-25T16:52:48;965.0;;;34.3;22.8
68873;BME280;55907;50.806;12.882;2022-07-25T16:58:51;965.1;;;34.5;23.3
68873;BME280;55907;50.806;12.882;2022-07-25T17:01:52;965.2;;;34.5;22.9
68873;BME280;55907;50.806;12.882;2022-07-25T17:04:54;965.2;;;34.4;23.1
68873;BME280;55907;50.806;12.882;2022-07-25T17:07:56;965.2;;;34.3;23.4
68873;BME280;55907;50.806;12.882;2022-07-25T17:10:57;965.2;;;34.2;23.1
68873;BME280;55907;50.806;12.882;2022-07-25T17:13:57;965.2;;;34.1;23.8
68873;BME280;55907;50.806;12.882;2022-07-25T17:16:59;965.2;;;33.9;23.7
68873;BME280;55907;50.806;12.882;2022-07-25T17:20:00;965.3;;;33.8;24.2
68873;BME280;55907;50.806;12.882;2022-07-25T17:23:02;965.3;;;33.5;24.8
68873;BME280;55907;50.806;12.882;2022-07-25T17:26:03;965.3;;;33.3;24.7
68873;BME280;55907;50.806;12.882;2022-07-25T17:29:04;965.4;;;33.2;24.9
68873;BME280;55907;50.806;12.882;2022-07-25T17:32:06;965.5;;;33.0;25.1
68873;BME280;55907;50.806;12.882;2022-07-25T17:35:07;965.8;;;32.6;27.8
68873;BME280;55907;50.806;12.882;2022-07-25T17:38:10;965.7;;;32.0;29.9
68873;BME280;55907;50.806;12.882;2022-07-25T17:41:09;965.9;;;31.3;31.8
68873;BME280;55907;50.806;12.882;2022-07-25T17:44:11;965.9;;;30.8;33.2
68873;BME280;55907;50.806;12.882;2022-07-25T17:47:12;966.1;;;30.3;34.7
68873;BME280;55907;50.806;12.882;2022-07-25T17:50:13;966.0;;;29.8;36.6